createdAt,value
2023-04-09T00:00:41.361Z,80.00
2023-04-09T00:03:08.254Z,80.10
2023-04-09T00:05:38.658Z,80.00
2023-04-09T00:08:05.396Z,80.00
2023-04-09T00:10:32.151Z,80.00
2023-04-09T00:12:58.912Z,80.10
2023-04-09T00:15:31.058Z,80.20
2023-04-09T00:17:58.858Z,80.10
2023-04-09T00:20:25.968Z,80.00
2023-04-09T00:22:53.181Z,80.00
2023-04-09T00:25:20.125Z,79.90
2023-04-09T00:27:47.202Z,79.90
2023-04-09T00:30:13.999Z,79.90
2023-04-09T00:32:41.318Z,79.90
2023-04-09T00:35:12.374Z,80.00
2023-04-09T00:37:39.484Z,80.10
2023-04-09T00:40:06.812Z,80.00
2023-04-09T00:42:34.707Z,80.00
2023-04-09T00:45:04.166Z,80.10
2023-04-09T00:47:32.975Z,80.10
2023-04-09T00:50:00.992Z,80.00
2023-04-09T00:52:30.684Z,80.00
2023-04-09T00:54:59.444Z,80.10
2023-04-09T00:57:26.844Z,80.10
2023-04-09T00:59:53.946Z,80.10
2023-04-09T01:02:21.286Z,80.00
2023-04-09T01:04:49.664Z,80.00
2023-04-09T01:07:37.433Z,80.00
2023-04-09T01:10:16.850Z,80.00
2023-04-09T01:13:00.034Z,80.10
2023-04-09T01:15:31.521Z,80.20
2023-04-09T01:18:12.277Z,80.30
2023-04-09T01:20:43.697Z,80.40
2023-04-09T01:23:10.581Z,80.40
2023-04-09T01:25:48.410Z,80.30
2023-04-09T01:28:30.959Z,80.20
2023-04-09T01:31:00.759Z,80.20
2023-04-09T01:33:29.687Z,80.20
2023-04-09T01:35:57.320Z,80.20
2023-04-09T01:38:25.670Z,80.20
2023-04-09T01:40:53.808Z,80.10
2023-04-09T01:43:21.264Z,80.10
2023-04-09T01:45:48.722Z,80.10
2023-04-09T01:48:16.759Z,80.10
2023-04-09T01:50:43.804Z,80.10
2023-04-09T01:53:11.012Z,80.00
2023-04-09T01:55:37.860Z,80.00
2023-04-09T01:58:04.790Z,79.90
2023-04-09T02:00:35.400Z,79.90
2023-04-09T02:03:17.096Z,80.00
2023-04-09T02:05:46.303Z,80.10
2023-04-09T02:08:16.717Z,80.20
2023-04-09T02:10:44.918Z,80.20
2023-04-09T02:13:15.445Z,80.20
2023-04-09T02:15:43.508Z,80.20
2023-04-09T02:18:21.664Z,80.30
2023-04-09T02:20:49.926Z,80.30
2023-04-09T02:23:16.973Z,80.30
2023-04-09T02:25:44.282Z,80.30
2023-04-09T02:28:11.320Z,80.30
2023-04-09T02:30:38.284Z,80.20
2023-04-09T02:33:05.645Z,80.20
2023-04-09T02:35:33.073Z,80.20
2023-04-09T02:38:04.464Z,80.20
2023-04-09T02:40:31.866Z,80.10
2023-04-09T02:42:58.647Z,80.20
2023-04-09T02:45:25.575Z,80.30
2023-04-09T02:47:52.949Z,80.40
2023-04-09T02:50:20.532Z,80.40
2023-04-09T02:52:50.604Z,80.50
2023-04-09T02:55:18.358Z,80.50
2023-04-09T02:57:45.581Z,80.50
2023-04-09T03:00:12.731Z,80.50
2023-04-09T03:02:39.870Z,80.50
2023-04-09T03:05:07.050Z,80.50
2023-04-09T03:07:34.092Z,80.50
2023-04-09T03:10:00.941Z,80.50
2023-04-09T03:12:28.081Z,80.50
2023-04-09T03:14:56.754Z,80.50
2023-04-09T03:17:27.031Z,80.50
2023-04-09T03:19:53.931Z,80.50
2023-04-09T03:22:21.578Z,80.50
2023-04-09T03:24:51.814Z,80.40
2023-04-09T03:27:18.730Z,80.40
2023-04-09T03:29:50.672Z,80.40
2023-04-09T03:32:18.955Z,80.40
2023-04-09T03:34:46.282Z,80.30
2023-04-09T03:37:15.072Z,80.40
2023-04-09T03:39:41.782Z,80.30
2023-04-09T03:42:08.691Z,80.20
2023-04-09T03:44:44.815Z,80.30
2023-04-09T03:47:17.785Z,80.30
2023-04-09T03:49:44.697Z,80.40
2023-04-09T03:52:20.409Z,80.40
2023-04-09T03:54:54.772Z,80.50
2023-04-09T03:57:24.531Z,80.60
2023-04-09T03:59:53.553Z,80.50
2023-04-09T04:02:22.591Z,80.60
2023-04-09T04:04:57.823Z,80.70
2023-04-09T04:07:28.883Z,80.80
2023-04-09T04:10:01.497Z,80.80
2023-04-09T04:12:31.884Z,81.00
2023-04-09T04:15:12.185Z,81.00
2023-04-09T04:17:46.656Z,80.80
2023-04-09T04:20:34.007Z,80.80
2023-04-09T04:23:06.663Z,80.60
2023-04-09T04:25:35.981Z,80.60
2023-04-09T04:28:02.994Z,80.70
2023-04-09T04:30:38.554Z,80.60
2023-04-09T04:33:08.120Z,80.70
2023-04-09T04:36:03.647Z,80.70
2023-04-09T04:38:44.242Z,80.70
2023-04-09T04:41:17.733Z,80.80
2023-04-09T04:44:06.804Z,80.70
2023-04-09T04:46:34.129Z,80.70
2023-04-09T04:49:01.168Z,80.70
2023-04-09T04:51:33.633Z,80.60
2023-04-09T04:54:12.059Z,80.60
2023-04-09T04:56:41.408Z,80.50
2023-04-09T04:59:19.317Z,80.60
2023-04-09T05:02:06.515Z,80.50
2023-04-09T05:04:43.629Z,80.60
2023-04-09T05:07:13.697Z,80.60
2023-04-09T05:09:48.449Z,80.50
2023-04-09T05:12:17.840Z,80.60
2023-04-09T05:14:48.622Z,80.60
2023-04-09T05:17:15.595Z,80.70
2023-04-09T05:19:44.702Z,80.60
2023-04-09T05:22:12.847Z,80.80
2023-04-09T05:24:39.491Z,80.80
2023-04-09T05:27:06.441Z,80.90
2023-04-09T05:29:33.310Z,81.10
2023-04-09T05:32:00.889Z,81.10
2023-04-09T05:34:32.829Z,81.10
2023-04-09T05:37:07.424Z,81.10
2023-04-09T05:39:34.810Z,81.20
2023-04-09T05:42:02.218Z,81.20
2023-04-09T05:44:33.314Z,81.20
2023-04-09T05:47:11.589Z,81.30
2023-04-09T05:49:47.356Z,81.50
2023-04-09T05:52:19.798Z,81.40
2023-04-09T05:54:46.914Z,81.40
2023-04-09T05:57:24.857Z,81.50
2023-04-09T05:59:58.529Z,81.50
2023-04-09T06:02:25.849Z,81.50
2023-04-09T06:04:54.189Z,81.60
2023-04-09T06:07:23.513Z,81.70
2023-04-09T06:09:50.670Z,81.80
2023-04-09T06:12:17.572Z,82.20
2023-04-09T06:14:44.346Z,82.60
2023-04-09T06:17:11.063Z,82.70
2023-04-09T06:19:37.789Z,82.80
2023-04-09T06:22:04.447Z,82.70
2023-04-09T06:24:32.195Z,82.60
2023-04-09T06:26:58.971Z,82.50
2023-04-09T06:29:25.880Z,82.30
2023-04-09T06:31:52.776Z,82.20
2023-04-09T06:34:19.570Z,82.20
2023-04-09T06:36:46.601Z,82.20
2023-04-09T06:39:13.347Z,82.30
2023-04-09T06:41:40.460Z,82.50
2023-04-09T06:44:24.654Z,82.80
2023-04-09T06:46:51.372Z,82.90
2023-04-09T06:49:18.172Z,82.80
2023-04-09T06:51:44.927Z,82.90
2023-04-09T06:54:11.699Z,82.80
2023-04-09T06:56:38.516Z,82.70
2023-04-09T06:59:05.305Z,82.90
2023-04-09T07:01:32.179Z,82.90
2023-04-09T07:03:59.269Z,82.90
2023-04-09T07:06:26.410Z,82.70
2023-04-09T07:08:53.397Z,82.70
2023-04-09T07:11:20.353Z,82.60
2023-04-09T07:13:47.044Z,82.60
2023-04-09T07:16:13.896Z,82.80
2023-04-09T07:18:40.573Z,82.70
2023-04-09T07:21:07.294Z,82.70
2023-04-09T07:23:34.784Z,82.90
2023-04-09T07:26:05.263Z,83.00
2023-04-09T07:28:32.148Z,83.30
2023-04-09T07:31:01.224Z,83.40
2023-04-09T07:33:28.022Z,83.30
2023-04-09T07:35:56.067Z,83.40
2023-04-09T07:38:22.948Z,83.40
2023-04-09T07:40:49.659Z,83.50
2023-04-09T07:43:16.895Z,83.70
2023-04-09T07:45:44.479Z,83.70
2023-04-09T07:48:11.135Z,83.90
2023-04-09T07:50:38.127Z,84.00
2023-04-09T07:53:05.077Z,84.10
2023-04-09T07:55:31.796Z,84.30
2023-04-09T07:57:58.771Z,84.40
2023-04-09T08:00:25.633Z,84.50
2023-04-09T08:02:52.799Z,84.40
2023-04-09T08:05:19.953Z,84.40
2023-04-09T08:07:47.101Z,84.50
2023-04-09T08:10:16.103Z,84.80
2023-04-09T08:12:42.980Z,85.00
2023-04-09T08:15:09.952Z,85.10
2023-04-09T08:17:39.633Z,85.30
2023-04-09T08:20:06.793Z,85.20
2023-04-09T08:22:34.534Z,85.30
2023-04-09T08:25:02.766Z,85.20
2023-04-09T08:27:29.875Z,85.60
2023-04-09T08:29:56.825Z,85.50
2023-04-09T08:32:23.794Z,85.60
2023-04-09T08:34:50.646Z,85.70
2023-04-09T08:37:17.520Z,85.60
2023-04-09T08:39:44.388Z,85.90
2023-04-09T08:42:12.545Z,85.90
2023-04-09T08:44:39.345Z,85.90
2023-04-09T08:47:11.577Z,86.00
2023-04-09T08:49:42.045Z,86.10
2023-04-09T08:52:09.152Z,86.10
2023-04-09T08:54:36.288Z,86.10
2023-04-09T08:57:06.451Z,86.30
2023-04-09T08:59:36.888Z,86.50
2023-04-09T09:02:07.579Z,86.40
2023-04-09T09:04:47.638Z,86.40
2023-04-09T09:07:15.197Z,86.70
2023-04-09T09:09:53.159Z,86.70
2023-04-09T09:12:30.959Z,87.00
2023-04-09T09:14:57.824Z,87.20
2023-04-09T09:17:24.543Z,87.10
2023-04-09T09:19:51.379Z,87.30
2023-04-09T09:22:18.248Z,87.40
2023-04-09T09:24:50.273Z,87.40
2023-04-09T09:27:37.274Z,87.40
2023-04-09T09:30:05.545Z,87.40
2023-04-09T09:32:32.974Z,87.20
2023-04-09T09:35:01.854Z,86.80
2023-04-09T09:37:29.119Z,87.00
2023-04-09T09:39:55.996Z,86.90
2023-04-09T09:42:22.739Z,87.00
2023-04-09T09:44:50.456Z,86.80
2023-04-09T09:47:20.773Z,87.00
2023-04-09T09:49:51.162Z,87.20
2023-04-09T09:52:21.078Z,87.30
2023-04-09T09:54:52.130Z,87.30
2023-04-09T09:57:19.997Z,88.10
2023-04-09T09:59:50.817Z,87.80
2023-04-09T10:02:22.848Z,87.90
2023-04-09T10:04:53.648Z,87.70
2023-04-09T10:07:21.612Z,87.70
2023-04-09T10:09:49.886Z,87.90
2023-04-09T10:12:17.216Z,88.50
2023-04-09T10:14:44.889Z,88.80
2023-04-09T10:17:11.840Z,88.90
2023-04-09T10:19:44.646Z,89.10
2023-04-09T10:22:18.616Z,89.20
2023-04-09T10:24:46.023Z,89.40
2023-04-09T10:27:15.904Z,90.10
2023-04-09T10:29:47.578Z,90.30
2023-04-09T10:32:21.609Z,90.60
2023-04-09T10:34:51.031Z,90.10
2023-04-09T10:37:22.105Z,90.00
2023-04-09T10:39:49.848Z,89.50
2023-04-09T10:42:21.573Z,90.00
2023-04-09T10:45:04.334Z,89.60
2023-04-09T10:47:32.437Z,89.80
2023-04-09T10:50:13.764Z,90.00
2023-04-09T10:52:42.191Z,90.20
2023-04-09T10:55:08.826Z,90.20
2023-04-09T10:57:35.680Z,89.90
2023-04-09T11:00:02.485Z,90.10
2023-04-09T11:02:38.974Z,90.00
2023-04-09T11:05:26.282Z,90.10
2023-04-09T11:07:54.580Z,89.80
2023-04-09T11:10:21.849Z,89.80
2023-04-09T11:12:49.234Z,90.00
2023-04-09T11:15:16.620Z,90.00
2023-04-09T11:17:43.732Z,90.10
2023-04-09T11:20:10.892Z,90.00
2023-04-09T11:22:38.078Z,90.10
2023-04-09T11:25:04.913Z,90.10
2023-04-09T11:27:36.382Z,90.20
2023-04-09T11:30:03.897Z,90.20
2023-04-09T11:32:31.469Z,90.20
2023-04-09T11:34:58.258Z,90.20
2023-04-09T11:37:25.191Z,90.10
2023-04-09T11:39:55.623Z,90.20
2023-04-09T11:42:25.784Z,90.40
2023-04-09T11:44:53.117Z,90.30
2023-04-09T11:47:21.085Z,90.60
2023-04-09T11:49:48.048Z,90.80
2023-04-09T11:52:16.547Z,90.80
2023-04-09T11:54:48.290Z,86.50
2023-04-09T11:57:14.991Z,86.90
2023-04-09T11:59:41.738Z,87.60
2023-04-09T12:02:09.210Z,87.60
2023-04-09T12:04:36.308Z,87.50
2023-04-09T12:07:03.153Z,87.80
2023-04-09T12:09:29.956Z,87.80
2023-04-09T12:11:57.565Z,88.60
2023-04-09T12:14:24.256Z,88.60
2023-04-09T12:16:52.087Z,88.50
2023-04-09T12:19:20.428Z,88.60
2023-04-09T12:21:52.838Z,89.20
2023-04-09T12:24:20.342Z,89.50
2023-04-09T12:26:47.370Z,90.00
2023-04-09T12:29:18.564Z,90.10
2023-04-09T12:31:45.842Z,90.20
2023-04-09T12:34:12.675Z,90.30
2023-04-09T12:36:41.421Z,90.40
2023-04-09T12:39:10.942Z,89.70
2023-04-09T12:41:37.720Z,88.80
2023-04-09T12:44:05.068Z,87.80
2023-04-09T12:46:32.514Z,87.40
2023-04-09T12:48:59.428Z,88.20
2023-04-09T12:51:26.392Z,87.20
2023-04-09T12:53:53.257Z,87.20
2023-04-09T12:56:20.205Z,86.90
2023-04-09T12:58:47.396Z,86.20
2023-04-09T13:01:14.178Z,85.80
2023-04-09T13:03:41.578Z,84.10
2023-04-09T13:06:08.774Z,83.00
2023-04-09T13:08:35.770Z,82.80
2023-04-09T13:11:02.806Z,82.90
2023-04-09T13:13:29.747Z,82.80
2023-04-09T13:15:57.288Z,83.10
2023-04-09T13:18:23.888Z,82.90
2023-04-09T13:20:52.012Z,83.00
2023-04-09T13:23:18.840Z,82.60
2023-04-09T13:25:45.722Z,82.20
2023-04-09T13:28:12.368Z,81.90
2023-04-09T13:30:39.140Z,81.80
2023-04-09T13:33:05.886Z,81.70
2023-04-09T13:35:32.680Z,81.80
2023-04-09T13:37:59.386Z,81.80
2023-04-09T13:40:26.292Z,81.80
2023-04-09T13:42:52.889Z,81.90
2023-04-09T13:45:20.893Z,81.90
2023-04-09T13:47:47.754Z,81.90
2023-04-09T13:50:14.579Z,81.80
2023-04-09T13:52:41.581Z,81.80
2023-04-09T13:55:08.906Z,81.80
2023-04-09T13:57:35.774Z,81.60
2023-04-09T14:00:04.742Z,81.50
2023-04-09T14:02:32.114Z,81.00
2023-04-09T14:04:59.410Z,80.80
2023-04-09T14:07:26.443Z,80.80
2023-04-09T14:09:53.190Z,80.80
2023-04-09T14:12:19.860Z,80.70
2023-04-09T14:14:46.844Z,80.10
2023-04-09T14:17:13.519Z,79.70
2023-04-09T14:19:40.370Z,79.30
2023-04-09T14:22:08.716Z,78.60
2023-04-09T14:24:40.208Z,78.40
2023-04-09T14:27:07.861Z,78.40
2023-04-09T14:29:34.706Z,78.30
2023-04-09T14:32:01.504Z,77.60
2023-04-09T14:34:30.174Z,76.70
2023-04-09T14:36:56.994Z,76.50
2023-04-09T14:39:24.108Z,76.60
2023-04-09T14:41:51.250Z,76.40
2023-04-09T14:44:18.074Z,76.10
2023-04-09T14:46:44.737Z,75.20
2023-04-09T14:49:11.444Z,75.40
2023-04-09T14:51:38.246Z,75.70
2023-04-09T14:54:04.888Z,75.50
2023-04-09T14:56:31.710Z,75.10
2023-04-09T14:58:58.567Z,74.30
2023-04-09T15:01:26.834Z,73.50
2023-04-09T15:03:54.218Z,72.60
2023-04-09T15:06:21.069Z,72.70
2023-04-09T15:08:47.812Z,72.60
2023-04-09T15:11:15.263Z,72.00
2023-04-09T15:13:45.286Z,72.10
2023-04-09T15:16:20.600Z,72.40
2023-04-09T15:18:49.610Z,72.30
2023-04-09T15:21:16.452Z,72.30
2023-04-09T15:23:43.241Z,71.30
2023-04-09T15:26:09.889Z,71.30
2023-04-09T15:28:36.777Z,70.70
2023-04-09T15:31:04.087Z,70.30
2023-04-09T15:33:32.487Z,69.60
2023-04-09T15:35:59.439Z,69.50
2023-04-09T15:38:26.474Z,69.10
2023-04-09T15:40:54.875Z,69.00
2023-04-09T15:43:23.176Z,68.30
2023-04-09T15:45:50.800Z,68.10
2023-04-09T15:48:19.318Z,67.60
2023-04-09T15:50:46.720Z,67.30
2023-04-09T15:53:14.892Z,66.00
2023-04-09T15:55:41.914Z,64.90
2023-04-09T15:58:08.647Z,64.50
2023-04-09T16:00:35.797Z,64.60
2023-04-09T16:03:02.445Z,64.60
2023-04-09T16:05:29.153Z,64.80
2023-04-09T16:07:58.283Z,64.60
2023-04-09T16:10:27.399Z,65.30
2023-04-09T16:12:54.337Z,64.70
2023-04-09T16:15:21.217Z,64.60
2023-04-09T16:17:47.881Z,64.90
2023-04-09T16:20:14.564Z,65.00
2023-04-09T16:22:41.192Z,65.00
2023-04-09T16:25:08.274Z,65.00
2023-04-09T16:27:34.871Z,65.10
2023-04-09T16:30:01.908Z,65.30
2023-04-09T16:32:28.543Z,65.40
2023-04-09T16:34:56.524Z,65.30
2023-04-09T16:37:23.111Z,65.40
2023-04-09T16:39:52.088Z,64.30
2023-04-09T16:42:18.712Z,64.50
2023-04-09T16:44:45.588Z,64.50
2023-04-09T16:47:12.268Z,64.30
2023-04-09T16:49:38.921Z,63.80
2023-04-09T16:52:05.667Z,63.60
2023-04-09T16:54:32.482Z,63.20
2023-04-09T16:56:59.352Z,62.60
2023-04-09T16:59:26.004Z,62.20
2023-04-09T17:01:52.863Z,61.60
2023-04-09T17:04:20.532Z,60.90
2023-04-09T17:06:47.149Z,60.30
2023-04-09T17:09:14.014Z,59.90
2023-04-09T17:11:40.641Z,59.10
2023-04-09T17:14:07.355Z,58.90
2023-04-09T17:16:34.011Z,58.80
2023-04-09T17:19:00.765Z,58.70
2023-04-09T17:21:27.430Z,58.60
2023-04-09T17:23:54.079Z,58.60
2023-04-09T17:26:20.878Z,58.50
2023-04-09T17:28:47.716Z,58.30
2023-04-09T17:31:17.782Z,58.10
2023-04-09T17:33:47.850Z,58.40
2023-04-09T17:36:14.774Z,58.50
2023-04-09T17:38:42.297Z,58.50
2023-04-09T17:41:08.965Z,58.50
2023-04-09T17:43:36.638Z,58.80
2023-04-09T17:46:03.469Z,59.10
2023-04-09T17:48:31.996Z,59.20
2023-04-09T17:50:58.916Z,59.40
2023-04-09T17:53:25.567Z,59.30
2023-04-09T17:55:52.721Z,59.40
2023-04-09T17:58:19.394Z,59.70
2023-04-09T18:00:46.275Z,60.20
2023-04-09T18:03:13.186Z,60.60
2023-04-09T18:05:40.255Z,61.00
2023-04-09T18:08:07.362Z,61.40
2023-04-09T18:10:34.127Z,61.60
2023-04-09T18:13:00.827Z,61.70
2023-04-09T18:15:28.397Z,61.80
2023-04-09T18:17:55.365Z,61.70
2023-04-09T18:20:22.140Z,61.80
2023-04-09T18:22:48.908Z,61.80
2023-04-09T18:25:18.080Z,61.90
2023-04-09T18:27:44.755Z,61.80
2023-04-09T18:30:11.676Z,62.00
2023-04-09T18:32:38.611Z,62.20
2023-04-09T18:35:05.796Z,62.30
2023-04-09T18:37:34.070Z,62.20
2023-04-09T18:40:02.489Z,62.20
2023-04-09T18:42:29.714Z,62.20
2023-04-09T18:44:56.412Z,62.20
2023-04-09T18:47:23.172Z,62.10
2023-04-09T18:49:50.494Z,62.20
2023-04-09T18:52:17.226Z,62.40
2023-04-09T18:54:44.027Z,62.30
2023-04-09T18:57:11.065Z,62.40
2023-04-09T18:59:39.884Z,62.50
2023-04-09T19:02:06.752Z,62.60
2023-04-09T19:04:40.165Z,62.70
2023-04-09T19:07:07.638Z,62.70
2023-04-09T19:09:34.626Z,62.80
2023-04-09T19:12:01.773Z,62.80
2023-04-09T19:14:28.625Z,62.80
2023-04-09T19:16:55.824Z,62.90
2023-04-09T19:19:25.276Z,63.00
2023-04-09T19:21:51.950Z,63.00
2023-04-09T19:24:21.495Z,63.10
2023-04-09T19:26:48.891Z,63.10
2023-04-09T19:29:15.829Z,63.10
2023-04-09T19:31:42.883Z,63.20
2023-04-09T19:34:11.617Z,63.20
2023-04-09T19:36:40.810Z,63.20
2023-04-09T19:39:08.431Z,63.20
2023-04-09T19:41:35.205Z,63.30
2023-04-09T19:44:01.947Z,63.40
2023-04-09T19:46:30.248Z,63.40
2023-04-09T19:48:56.887Z,63.50
2023-04-09T19:51:23.602Z,63.50
2023-04-09T19:53:50.422Z,63.50
2023-04-09T19:56:17.195Z,63.60
2023-04-09T19:58:43.949Z,63.50
2023-04-09T20:01:11.100Z,63.60
2023-04-09T20:03:38.012Z,63.50
2023-04-09T20:06:09.805Z,64.30
2023-04-09T20:08:37.624Z,63.30
2023-04-09T20:11:04.946Z,63.10
2023-04-09T20:13:31.740Z,62.90
2023-04-09T20:15:58.717Z,62.90
2023-04-09T20:18:25.842Z,62.80
2023-04-09T20:20:53.525Z,62.50
2023-04-09T20:23:20.511Z,62.40
2023-04-09T20:25:47.280Z,62.40
2023-04-09T20:28:14.037Z,62.40
2023-04-09T20:30:40.730Z,62.20
2023-04-09T20:33:07.745Z,62.10
2023-04-09T20:35:36.060Z,61.90
2023-04-09T20:38:02.887Z,62.00
2023-04-09T20:40:30.663Z,62.00
2023-04-09T20:42:57.414Z,62.10
2023-04-09T20:45:24.043Z,62.20
2023-04-09T20:47:51.918Z,62.20
2023-04-09T20:50:19.476Z,62.30
2023-04-09T20:52:47.549Z,62.20
2023-04-09T20:55:14.467Z,62.30
2023-04-09T20:57:41.365Z,62.30
2023-04-09T21:00:08.517Z,62.30
2023-04-09T21:02:35.449Z,62.40
2023-04-09T21:05:11.827Z,62.30
2023-04-09T21:07:49.622Z,62.30
2023-04-09T21:10:16.576Z,62.30
2023-04-09T21:12:43.165Z,62.40
2023-04-09T21:15:10.315Z,62.40
2023-04-09T21:17:37.056Z,62.40
2023-04-09T21:20:04.456Z,62.30
2023-04-09T21:22:32.036Z,62.10
2023-04-09T21:24:58.723Z,62.10
2023-04-09T21:27:25.413Z,62.10
2023-04-09T21:29:52.328Z,62.10
2023-04-09T21:32:18.993Z,62.10
2023-04-09T21:34:45.905Z,62.20
2023-04-09T21:37:12.686Z,62.20
2023-04-09T21:39:39.746Z,62.30
2023-04-09T21:42:07.317Z,62.30
2023-04-09T21:44:34.159Z,62.20
2023-04-09T21:47:01.733Z,62.00
2023-04-09T21:49:31.520Z,61.90
2023-04-09T21:51:59.303Z,61.90
2023-04-09T21:54:26.071Z,62.00
2023-04-09T21:56:52.794Z,62.00
2023-04-09T21:59:19.648Z,62.00
2023-04-09T22:01:47.516Z,62.00
2023-04-09T22:04:16.199Z,61.90
2023-04-09T22:06:44.931Z,61.90
2023-04-09T22:09:11.715Z,61.90
2023-04-09T22:11:41.208Z,61.80
2023-04-09T22:14:07.995Z,61.90
2023-04-09T22:16:35.312Z,61.90
2023-04-09T22:19:02.324Z,61.80
2023-04-09T22:21:29.078Z,61.80
2023-04-09T22:23:55.888Z,61.80
2023-04-09T22:26:23.833Z,61.80
2023-04-09T22:28:51.289Z,61.90
2023-04-09T22:31:18.087Z,61.90
2023-04-09T22:33:44.987Z,62.00
2023-04-09T22:36:12.843Z,62.00
2023-04-09T22:38:39.883Z,62.00
2023-04-09T22:41:06.894Z,62.20
2023-04-09T22:43:33.727Z,62.20
2023-04-09T22:46:01.530Z,62.40
2023-04-09T22:48:29.095Z,62.30
2023-04-09T22:50:56.807Z,62.30
2023-04-09T22:53:23.846Z,62.40
2023-04-09T22:55:51.533Z,62.50
2023-04-09T22:58:18.874Z,62.50
2023-04-09T23:00:47.225Z,62.70
2023-04-09T23:03:14.432Z,62.80
2023-04-09T23:05:41.787Z,62.80
2023-04-09T23:08:08.925Z,62.80
2023-04-09T23:10:36.261Z,62.90
2023-04-09T23:13:03.536Z,62.90
2023-04-09T23:15:30.404Z,62.90
2023-04-09T23:17:57.503Z,62.90
2023-04-09T23:20:24.574Z,62.80
2023-04-09T23:22:53.738Z,62.80
2023-04-09T23:25:21.800Z,62.70
2023-04-09T23:27:48.833Z,62.80
2023-04-09T23:30:20.312Z,62.90
2023-04-09T23:32:52.570Z,62.90
2023-04-09T23:35:20.677Z,62.90
2023-04-09T23:37:48.896Z,62.90
2023-04-09T23:40:17.848Z,62.80
2023-04-09T23:42:45.276Z,62.90
2023-04-09T23:45:12.203Z,62.80
2023-04-09T23:47:38.989Z,62.90
2023-04-09T23:50:06.623Z,63.00
2023-04-09T23:52:34.494Z,62.90
2023-04-09T23:55:01.612Z,63.10
2023-04-09T23:57:28.701Z,63.00
2023-04-09T23:59:55.943Z,63.00
